This is the latest recevied weather packets stored in our database for station/object KD2RHT-13. If no packets are shown the sender has not sent any weather packets the latest 10 day(s).
| Time | Temp. | Humidity | Pressure | Rain* | Wind** | Luminosity | Snow |
|---|---|---|---|---|---|---|---|
| 1777600986 | 5° C | 87% | 1014.5 hPa | 0 mm | - | 0 W/m² | - |
| 1777600379 | 5° C | 87% | 1014.2 hPa | 0 mm | - | 0 W/m² | - |
| 1777587327 | 10° C | 70% | 1012.4 hPa | 0 mm | - | 101 W/m² | - |
| 1777587022 | 9.44° C | 70% | 1012.4 hPa | 0 mm | - | 95 W/m² | - |
| 1777586114 | 10° C | 69% | 1012.4 hPa | 0 mm | - | 121 W/m² | - |
| 1777585207 | 10° C | 71% | 1012.4 hPa | 0 mm | - | 130 W/m² | - |
| 1777584297 | 10° C | 72% | 1012.4 hPa | 0 mm | - | 180 W/m² | - |
| 1777583992 | 10° C | 71% | 1012.4 hPa | 0 mm | - | 180 W/m² | - |
| 1777582783 | 10° C | 72% | 1012.1 hPa | 0 mm | - | 162 W/m² | - |
| 1777582478 | 10° C | 72% | 1012.4 hPa | 0 mm | - | 132 W/m² | - |
| 1777581872 | 10° C | 71% | 1012.1 hPa | 0 mm | - | 124 W/m² | - |
| 1777581566 | 10° C | 71% | 1012.1 hPa | 0 mm | - | 138 W/m² | - |
| 1777581261 | 10.56° C | 70% | 1011.7 hPa | 0 mm | - | 161 W/m² | - |
| 1777580347 | 10.56° C | 70% | 1011.7 hPa | 0 mm | - | 188 W/m² | - |
| 1777580044 | 10.56° C | 71% | 1011.7 hPa | 0 mm | - | 231 W/m² | - |
| 1777579739 | 10.56° C | 70% | 1011.7 hPa | 0 mm | - | 266 W/m² | - |
| 1777579432 | 10.56° C | 71% | 1011.4 hPa | 0 mm | - | 303 W/m² | - |
| 1777579128 | 10.56° C | 71% | 1011.4 hPa | 0 mm | - | 285 W/m² | - |
| 1777578827 | 11.11° C | 70% | 1011.4 hPa | 0 mm | - | 383 W/m² | - |
| 1777577919 | 10.56° C | 72% | 1011.7 hPa | 0 mm | - | 327 W/m² | - |
| 1777577615 | 10.56° C | 72% | 1011.7 hPa | 0 mm | - | 327 W/m² | - |
| 1777577312 | 11.11° C | 72% | 1011.4 hPa | 0 mm | - | 337 W/m² | - |
| 1777577008 | 10.56° C | 74% | 1011.7 hPa | 0 mm | - | 347 W/m² | - |
| 1777576404 | 11.67° C | 71% | 1011.4 hPa | 0 mm | - | 394 W/m² | - |
| 1777576101 | 11.67° C | 69% | 1011.4 hPa | 0 mm | - | 507 W/m² | - |
* Rain latest hour (hover to see other rain measurements)
** Current wind speed in m/s (hover to see current wind gust speed)